createdAt,value
2019-03-04T00:00:37.332Z,9.7
2019-03-04T00:01:39.760Z,9.7
2019-03-04T00:02:42.173Z,9.7
2019-03-04T00:03:44.307Z,9.7
2019-03-04T00:04:46.457Z,9.7
2019-03-04T00:05:48.599Z,9.7
2019-03-04T00:06:50.742Z,9.6
2019-03-04T00:07:52.855Z,9.6
2019-03-04T00:08:55.007Z,9.6
2019-03-04T00:09:57.226Z,9.6
2019-03-04T00:10:59.350Z,9.6
2019-03-04T00:12:01.502Z,9.6
2019-03-04T00:13:03.699Z,9.6
2019-03-04T00:14:06.393Z,9.6
2019-03-04T00:15:08.504Z,9.6
2019-03-04T00:16:11.035Z,9.6
2019-03-04T00:17:13.457Z,9.5
2019-03-04T00:18:15.865Z,9.5
2019-03-04T00:19:18.275Z,9.5
2019-03-04T00:20:20.388Z,9.5
2019-03-04T00:21:22.526Z,9.5
2019-03-04T00:22:24.649Z,9.5
2019-03-04T00:23:26.785Z,9.5
2019-03-04T00:24:28.909Z,9.5
2019-03-04T00:25:31.324Z,9.5
2019-03-04T00:26:33.504Z,9.5
2019-03-04T00:27:35.632Z,9.5
2019-03-04T00:28:37.758Z,9.5
2019-03-04T00:29:39.901Z,9.5
2019-03-04T00:30:42.036Z,9.5
2019-03-04T00:31:44.455Z,9.5
2019-03-04T00:32:46.695Z,9.4
2019-03-04T00:33:48.842Z,9.4
2019-03-04T00:34:51.033Z,9.4
2019-03-04T00:35:53.569Z,9.5
2019-03-04T00:36:55.692Z,9.4
2019-03-04T00:37:57.855Z,9.4
2019-03-04T00:39:00.283Z,9.4
2019-03-04T00:40:02.701Z,9.4
2019-03-04T00:41:04.810Z,9.4
2019-03-04T00:42:06.994Z,9.4
2019-03-04T00:43:09.124Z,9.4
2019-03-04T00:44:11.283Z,9.4
2019-03-04T00:45:13.427Z,9.4
2019-03-04T00:46:15.849Z,9.4
2019-03-04T00:47:17.971Z,9.4
2019-03-04T00:48:20.204Z,9.4
2019-03-04T00:49:22.620Z,9.4
2019-03-04T00:50:24.742Z,9.4
2019-03-04T00:51:26.888Z,9.3
2019-03-04T00:52:29.423Z,9.3
2019-03-04T00:53:31.852Z,9.3
2019-03-04T00:54:34.327Z,9.3
2019-03-04T00:55:36.450Z,9.3
2019-03-04T00:56:38.890Z,9.3
2019-03-04T00:57:41.042Z,9.3
2019-03-04T00:58:43.614Z,9.3
2019-03-04T00:59:45.728Z,9.3
2019-03-04T01:00:48.148Z,9.3
2019-03-04T01:01:50.272Z,9.3
2019-03-04T01:02:52.385Z,9.3
2019-03-04T01:03:54.503Z,9.3
2019-03-04T01:04:56.637Z,9.3
2019-03-04T01:05:59.140Z,9.2
2019-03-04T01:07:01.266Z,9.2
2019-03-04T01:08:03.397Z,9.2
2019-03-04T01:09:05.515Z,9.2
2019-03-04T01:10:07.654Z,9.2
2019-03-04T01:11:09.769Z,9.2
2019-03-04T01:12:11.885Z,9.2
2019-03-04T01:13:14.011Z,9.2
2019-03-04T01:14:16.179Z,9.2
2019-03-04T01:15:18.359Z,9.2
2019-03-04T01:16:20.489Z,9.2
2019-03-04T01:17:22.926Z,9.2
2019-03-04T01:18:25.432Z,9.2
2019-03-04T01:19:27.581Z,9.2
2019-03-04T01:20:29.766Z,9.2
2019-03-04T01:21:31.895Z,9.2
2019-03-04T01:22:34.146Z,9.2
2019-03-04T01:23:36.278Z,9.2
2019-03-04T01:24:38.405Z,9.2
2019-03-04T01:25:40.603Z,9.2
2019-03-04T01:26:42.796Z,9.2
2019-03-04T01:27:45.012Z,9.1
2019-03-04T01:28:47.160Z,9.2
2019-03-04T01:29:49.292Z,9.2
2019-03-04T01:30:51.424Z,9.2
2019-03-04T01:31:53.533Z,9.2
2019-03-04T01:32:55.677Z,9.1
2019-03-04T01:33:57.798Z,9.1
2019-03-04T01:34:59.950Z,9.1
2019-03-04T01:36:02.289Z,9.1
2019-03-04T01:37:04.406Z,9.1
2019-03-04T01:38:06.537Z,9.1
2019-03-04T01:39:08.640Z,9.1
2019-03-04T01:40:10.784Z,9.1
2019-03-04T01:41:12.918Z,9.1
2019-03-04T01:42:15.090Z,9.1
2019-03-04T01:43:17.271Z,9.1
2019-03-04T01:44:19.396Z,9.1
2019-03-04T01:45:21.517Z,9.1
2019-03-04T01:46:23.640Z,9.1
2019-03-04T01:47:25.853Z,9.1
2019-03-04T01:48:27.966Z,9.1
2019-03-04T01:49:30.581Z,9.1
2019-03-04T01:50:32.759Z,9.1
2019-03-04T01:51:34.874Z,9.1
2019-03-04T01:52:37.067Z,9
2019-03-04T01:53:39.577Z,9
2019-03-04T01:54:41.701Z,9.1
2019-03-04T01:55:43.864Z,9.1
2019-03-04T01:56:46.454Z,9
2019-03-04T01:57:48.578Z,9
2019-03-04T01:58:50.918Z,9
2019-03-04T01:59:53.056Z,9
2019-03-04T02:00:55.446Z,9
2019-03-04T02:01:57.558Z,9.1
2019-03-04T02:02:59.973Z,9.1
2019-03-04T02:04:02.091Z,9
2019-03-04T02:05:04.198Z,9
2019-03-04T02:06:06.602Z,9
2019-03-04T02:07:08.713Z,9
2019-03-04T02:08:11.022Z,9
2019-03-04T02:09:13.159Z,9
2019-03-04T02:10:15.602Z,9
2019-03-04T02:11:17.997Z,9
2019-03-04T02:12:20.127Z,9.1
2019-03-04T02:13:22.248Z,9.1
2019-03-04T02:14:24.363Z,9.1
2019-03-04T02:15:26.540Z,9
2019-03-04T02:16:28.695Z,9
2019-03-04T02:17:31.108Z,9
2019-03-04T02:18:33.534Z,9.1
2019-03-04T02:19:35.729Z,9.1
2019-03-04T02:20:37.869Z,9.1
2019-03-04T02:21:40.270Z,9.1
2019-03-04T02:22:42.685Z,9.1
2019-03-04T02:23:45.206Z,9
2019-03-04T02:24:47.306Z,9.1
2019-03-04T02:25:49.438Z,9.1
2019-03-04T02:26:51.572Z,9.1
2019-03-04T02:27:53.699Z,9.1
2019-03-04T02:28:55.815Z,9.1
2019-03-04T02:29:57.953Z,9.1
2019-03-04T02:31:00.759Z,9.1
2019-03-04T02:32:03.876Z,9.1
2019-03-04T02:33:06.665Z,9.1
2019-03-04T02:34:09.079Z,9.1
2019-03-04T02:35:11.502Z,9.1
2019-03-04T02:36:14.725Z,9.1
2019-03-04T02:37:17.142Z,9.1
2019-03-04T02:38:19.963Z,9.1
2019-03-04T02:39:22.189Z,9.1
2019-03-04T02:40:24.611Z,9.1
2019-03-04T02:41:26.744Z,9.1
2019-03-04T02:42:29.275Z,9.2
2019-03-04T02:43:31.976Z,9.2
2019-03-04T02:44:34.430Z,9.2
2019-03-04T02:45:36.952Z,9.2
2019-03-04T02:46:39.629Z,9.3
2019-03-04T02:47:42.078Z,9.3
2019-03-04T02:48:44.524Z,9.3
2019-03-04T02:49:46.644Z,9.3
2019-03-04T02:50:48.780Z,9.3
2019-03-04T02:51:51.190Z,9.3
2019-03-04T02:52:53.721Z,9.3
2019-03-04T02:53:55.954Z,9.3
2019-03-04T02:54:58.863Z,9.3
2019-03-04T02:56:01.393Z,9.3
2019-03-04T02:57:03.886Z,9.4
2019-03-04T02:58:06.707Z,9.4
2019-03-04T02:59:09.168Z,9.4
2019-03-04T03:00:11.610Z,9.4
2019-03-04T03:01:14.069Z,9.4
2019-03-04T03:02:16.831Z,9.4
2019-03-04T03:03:19.562Z,9.4
2019-03-04T03:04:21.707Z,9.5
2019-03-04T03:05:24.280Z,9.5
2019-03-04T03:06:26.436Z,9.5
2019-03-04T03:07:28.837Z,9.5
2019-03-04T03:08:31.137Z,9.5
2019-03-04T03:09:33.297Z,9.5
2019-03-04T03:10:36.102Z,9.5
2019-03-04T03:11:38.514Z,9.6
2019-03-04T03:12:41.223Z,9.6
2019-03-04T03:13:43.391Z,9.6
2019-03-04T03:14:45.995Z,9.6
2019-03-04T03:15:48.294Z,9.6
2019-03-04T03:16:51.111Z,9.6
2019-03-04T03:17:54.223Z,9.6
2019-03-04T03:18:57.627Z,9.6
2019-03-04T03:20:00.617Z,9.6
2019-03-04T03:21:04.009Z,9.6
2019-03-04T03:22:06.167Z,9.6
2019-03-04T03:23:08.299Z,9.6
2019-03-04T03:24:10.467Z,9.6
2019-03-04T03:25:12.620Z,9.5
2019-03-04T03:26:15.627Z,9.6
2019-03-04T03:27:17.750Z,9.6
2019-03-04T03:28:20.206Z,9.5
2019-03-04T03:29:22.360Z,9.5
2019-03-04T03:30:25.265Z,9.5
2019-03-04T03:31:28.181Z,9.6
2019-03-04T03:32:30.742Z,9.5
2019-03-04T03:33:33.271Z,9.5
2019-03-04T03:34:36.504Z,9.5
2019-03-04T03:35:38.680Z,9.5
2019-03-04T03:36:41.831Z,9.5
2019-03-04T03:37:44.664Z,9.5
2019-03-04T03:38:47.081Z,9.5
2019-03-04T03:39:49.591Z,9.6
2019-03-04T03:40:52.012Z,9.5
2019-03-04T03:41:54.431Z,9.6
2019-03-04T03:42:57.297Z,9.6
2019-03-04T03:43:59.455Z,9.6
2019-03-04T03:45:01.889Z,9.6
2019-03-04T03:46:04.038Z,9.6
2019-03-04T03:47:06.471Z,9.6
2019-03-04T03:48:08.715Z,9.6
2019-03-04T03:49:10.885Z,9.6
2019-03-04T03:50:13.052Z,9.6
2019-03-04T03:51:15.199Z,9.6
2019-03-04T03:52:17.327Z,9.6
2019-03-04T03:53:19.857Z,9.7
2019-03-04T03:54:22.076Z,9.7
2019-03-04T03:55:24.215Z,9.7
2019-03-04T03:56:26.646Z,9.7
2019-03-04T03:57:29.071Z,9.7
2019-03-04T03:58:31.241Z,9.7
2019-03-04T03:59:34.172Z,9.7
2019-03-04T04:00:36.896Z,9.8
2019-03-04T04:01:39.025Z,9.7
2019-03-04T04:02:41.970Z,9.7
2019-03-04T04:03:44.571Z,9.8
2019-03-04T04:04:47.267Z,9.8
2019-03-04T04:05:49.438Z,9.8
2019-03-04T04:06:52.245Z,9.8
2019-03-04T04:07:55.370Z,9.8
2019-03-04T04:08:57.497Z,9.8
2019-03-04T04:09:59.633Z,9.9
2019-03-04T04:11:02.188Z,9.9
2019-03-04T04:12:04.337Z,9.9
2019-03-04T04:13:06.743Z,10
2019-03-04T04:14:08.898Z,10
2019-03-04T04:15:11.314Z,10
2019-03-04T04:16:13.819Z,10
2019-03-04T04:17:15.950Z,10
2019-03-04T04:18:18.827Z,10
2019-03-04T04:19:21.077Z,10
2019-03-04T04:20:23.507Z,10
2019-03-04T04:21:26.418Z,10
2019-03-04T04:22:28.559Z,10.1
2019-03-04T04:23:31.311Z,10.1
2019-03-04T04:24:34.064Z,10.1
2019-03-04T04:25:36.518Z,10.1
2019-03-04T04:26:38.661Z,10.1
2019-03-04T04:27:41.107Z,10.2
2019-03-04T04:28:43.234Z,10.2
2019-03-04T04:29:45.387Z,10.2
2019-03-04T04:30:48.204Z,10.2
2019-03-04T04:31:50.333Z,10.2
2019-03-04T04:32:52.488Z,10.3
2019-03-04T04:33:55.027Z,10.3
2019-03-04T04:34:57.555Z,10.3
2019-03-04T04:36:00.005Z,10.3
2019-03-04T04:37:02.147Z,10.3
2019-03-04T04:38:04.264Z,10.3
2019-03-04T04:39:06.806Z,10.3
2019-03-04T04:40:08.948Z,10.3
2019-03-04T04:41:11.375Z,10.4
2019-03-04T04:42:13.480Z,10.4
2019-03-04T04:43:15.620Z,10.4
2019-03-04T04:44:17.740Z,10.4
2019-03-04T04:45:19.866Z,10.4
2019-03-04T04:46:22.009Z,10.4
2019-03-04T04:47:24.125Z,10.4
2019-03-04T04:48:26.239Z,10.5
2019-03-04T04:49:28.344Z,10.5
2019-03-04T04:50:30.457Z,10.5
2019-03-04T04:51:32.881Z,10.5
2019-03-04T04:52:35.012Z,10.5
2019-03-04T04:53:37.156Z,10.5
2019-03-04T04:54:39.865Z,10.6
2019-03-04T04:55:41.979Z,10.6
2019-03-04T04:56:44.100Z,10.6
2019-03-04T04:57:46.241Z,10.6
2019-03-04T04:58:48.355Z,10.6
2019-03-04T04:59:50.479Z,10.7
2019-03-04T05:00:52.601Z,10.6
2019-03-04T05:01:54.735Z,10.6
2019-03-04T05:02:56.890Z,10.7
2019-03-04T05:03:59.173Z,10.7
2019-03-04T05:05:01.446Z,10.7
2019-03-04T05:06:03.843Z,10.7
2019-03-04T05:07:06.011Z,10.7
2019-03-04T05:08:08.121Z,10.7
2019-03-04T05:09:10.263Z,10.7
2019-03-04T05:10:12.432Z,10.8
2019-03-04T05:11:14.548Z,10.7
2019-03-04T05:12:16.681Z,10.8
2019-03-04T05:13:19.402Z,10.8
2019-03-04T05:14:21.542Z,10.8
2019-03-04T05:15:23.659Z,10.8
2019-03-04T05:16:25.799Z,10.8
2019-03-04T05:17:27.915Z,10.8
2019-03-04T05:18:30.047Z,10.8
2019-03-04T05:19:32.189Z,10.8
2019-03-04T05:20:34.317Z,10.8
2019-03-04T05:21:36.740Z,10.8
2019-03-04T05:22:39.206Z,10.8
2019-03-04T05:23:41.335Z,10.8
2019-03-04T05:24:43.449Z,10.8
2019-03-04T05:25:46.015Z,10.8
2019-03-04T05:26:48.213Z,10.9
2019-03-04T05:27:50.729Z,10.9
2019-03-04T05:28:52.841Z,10.9
2019-03-04T05:29:54.967Z,10.9
2019-03-04T05:30:57.391Z,10.8
2019-03-04T05:31:59.495Z,10.8
2019-03-04T05:33:01.939Z,10.8
2019-03-04T05:34:04.517Z,10.9
2019-03-04T05:35:06.630Z,10.9
2019-03-04T05:36:08.775Z,10.9
2019-03-04T05:37:10.892Z,11
2019-03-04T05:38:13.290Z,10.9
2019-03-04T05:39:15.406Z,10.9
2019-03-04T05:40:17.556Z,11
2019-03-04T05:41:19.682Z,11
2019-03-04T05:42:21.797Z,11
2019-03-04T05:43:23.926Z,11
2019-03-04T05:44:26.042Z,11
2019-03-04T05:45:28.468Z,11
2019-03-04T05:46:30.874Z,11
2019-03-04T05:47:33.010Z,11.1
2019-03-04T05:48:35.118Z,11.1
2019-03-04T05:49:37.253Z,11.1
2019-03-04T05:50:39.815Z,11.1
2019-03-04T05:51:42.317Z,11.1
2019-03-04T05:52:44.457Z,11.1
2019-03-04T05:53:46.574Z,11.2
2019-03-04T05:54:48.687Z,11.2
2019-03-04T05:55:51.112Z,11.2
2019-03-04T05:56:53.241Z,11.2
2019-03-04T05:57:55.407Z,11.2
2019-03-04T05:58:57.552Z,11.2
2019-03-04T05:59:59.677Z,11.2
2019-03-04T06:01:01.805Z,11.1
2019-03-04T06:02:04.326Z,11.1
2019-03-04T06:03:06.445Z,11.1
2019-03-04T06:04:08.862Z,11.1
2019-03-04T06:05:11.303Z,11.1
2019-03-04T06:06:13.422Z,11.2
2019-03-04T06:07:16.136Z,11.2
2019-03-04T06:08:18.271Z,11.1
2019-03-04T06:09:20.378Z,11.1
2019-03-04T06:10:22.824Z,11.1
2019-03-04T06:11:25.227Z,11.1
2019-03-04T06:12:27.354Z,11.1
2019-03-04T06:13:29.465Z,11.2
2019-03-04T06:14:31.603Z,11.2
2019-03-04T06:15:33.726Z,11.1
2019-03-04T06:16:36.143Z,11.2
2019-03-04T06:17:38.292Z,11.2
2019-03-04T06:18:40.402Z,11.1
2019-03-04T06:19:45.230Z,11.1
2019-03-04T06:20:47.632Z,11.2
2019-03-04T06:21:49.782Z,11.2
2019-03-04T06:22:51.957Z,11.1
2019-03-04T06:23:54.086Z,11.1
2019-03-04T06:24:56.218Z,11.1
2019-03-04T06:25:59.013Z,11.2
2019-03-04T06:27:01.163Z,11.2
2019-03-04T06:28:03.575Z,11.1
2019-03-04T06:29:05.680Z,11.1
2019-03-04T06:30:07.799Z,11.2
2019-03-04T06:31:09.937Z,11.1
2019-03-04T06:32:12.052Z,11.2
2019-03-04T06:33:14.183Z,11.1
2019-03-04T06:34:17.084Z,11.2
2019-03-04T06:35:19.197Z,11.1
2019-03-04T06:36:21.333Z,11.1
2019-03-04T06:37:23.466Z,11.1
2019-03-04T06:38:25.571Z,11.1
2019-03-04T06:39:27.699Z,11.1
2019-03-04T06:40:29.837Z,11.1
2019-03-04T06:41:32.245Z,11.1
2019-03-04T06:42:34.349Z,11.1
2019-03-04T06:43:36.477Z,11.1
2019-03-04T06:44:38.597Z,11.1
2019-03-04T06:45:41.005Z,11.1
2019-03-04T06:46:43.399Z,11.1
2019-03-04T06:47:45.545Z,11.1
2019-03-04T06:48:48.061Z,11.1
2019-03-04T06:49:50.229Z,11.1
2019-03-04T06:50:52.812Z,11.1
2019-03-04T06:51:54.922Z,11.1
2019-03-04T06:52:57.060Z,11.1
2019-03-04T06:53:59.178Z,11.1
2019-03-04T06:55:01.403Z,11
2019-03-04T06:56:03.525Z,11
2019-03-04T06:57:05.666Z,11
2019-03-04T06:58:07.789Z,11
2019-03-04T06:59:09.910Z,11
2019-03-04T07:00:12.061Z,11
2019-03-04T07:01:14.484Z,11
2019-03-04T07:02:16.587Z,11
2019-03-04T07:03:18.712Z,11
2019-03-04T07:04:20.851Z,10.9
2019-03-04T07:05:22.971Z,10.9
2019-03-04T07:06:25.101Z,10.9
2019-03-04T07:07:27.229Z,10.9
2019-03-04T07:08:29.341Z,10.9
2019-03-04T07:09:31.461Z,10.9
2019-03-04T07:10:33.594Z,10.9
2019-03-04T07:11:36.100Z,10.9
2019-03-04T07:12:38.235Z,10.9
2019-03-04T07:13:40.362Z,10.9
2019-03-04T07:14:42.487Z,10.9
2019-03-04T07:15:44.629Z,10.8
2019-03-04T07:16:46.749Z,10.9
2019-03-04T07:17:48.865Z,10.9
2019-03-04T07:18:50.970Z,10.8
2019-03-04T07:19:53.380Z,10.8
2019-03-04T07:20:55.510Z,10.8
2019-03-04T07:21:57.634Z,10.8
2019-03-04T07:23:00.056Z,10.8
2019-03-04T07:24:02.194Z,10.8
2019-03-04T07:25:04.587Z,10.8
2019-03-04T07:26:06.710Z,10.8
2019-03-04T07:27:09.495Z,10.8
2019-03-04T07:28:11.647Z,10.8
2019-03-04T07:29:16.896Z,10.8
2019-03-04T07:30:19.043Z,10.8
2019-03-04T07:31:21.177Z,10.8
2019-03-04T07:32:23.291Z,10.8
2019-03-04T07:33:25.429Z,10.8
2019-03-04T07:34:27.844Z,10.8
2019-03-04T07:35:29.964Z,10.8
2019-03-04T07:36:32.088Z,10.8
2019-03-04T07:37:34.226Z,10.8
2019-03-04T07:38:36.338Z,10.8
2019-03-04T07:39:38.469Z,10.8
2019-03-04T07:40:40.594Z,10.8
2019-03-04T07:41:42.711Z,10.8
2019-03-04T07:42:44.900Z,10.8
2019-03-04T07:43:47.086Z,10.9
2019-03-04T07:44:49.204Z,10.9
2019-03-04T07:45:51.360Z,10.9
2019-03-04T07:46:53.776Z,10.9
2019-03-04T07:47:55.893Z,10.9
2019-03-04T07:48:58.072Z,10.9
2019-03-04T07:50:00.368Z,10.9
2019-03-04T07:51:03.076Z,10.9
2019-03-04T07:52:05.466Z,11
2019-03-04T07:53:07.988Z,11
2019-03-04T07:54:10.107Z,11
2019-03-04T07:55:12.805Z,11
2019-03-04T07:56:14.953Z,11
2019-03-04T07:57:17.109Z,11
2019-03-04T07:58:19.226Z,11
2019-03-04T07:59:21.939Z,11
2019-03-04T08:00:24.063Z,11
2019-03-04T08:01:26.486Z,11
2019-03-04T08:02:28.614Z,11
2019-03-04T08:03:31.157Z,11
2019-03-04T08:04:33.297Z,11
2019-03-04T08:05:35.418Z,11.1
2019-03-04T08:06:37.566Z,11.1
2019-03-04T08:07:39.702Z,11.1
2019-03-04T08:08:41.809Z,11.1
2019-03-04T08:09:44.227Z,11.1
2019-03-04T08:10:46.359Z,11.1
2019-03-04T08:11:48.474Z,11.1
2019-03-04T08:12:50.891Z,11.1
2019-03-04T08:13:53.461Z,11.1
2019-03-04T08:15:27.958Z,11.1
2019-03-04T08:16:30.075Z,11.1
2019-03-04T08:17:32.214Z,11.1
2019-03-04T08:18:34.382Z,11.1
2019-03-04T08:19:36.519Z,11.2
2019-03-04T08:20:38.649Z,11.2
2019-03-04T08:21:40.799Z,11.2
2019-03-04T08:22:43.235Z,11.2
2019-03-04T08:23:45.655Z,11.2
2019-03-04T08:24:47.783Z,11.3
2019-03-04T08:25:49.895Z,11.3
2019-03-04T08:26:52.044Z,11.3
2019-03-04T08:27:54.757Z,11.3
2019-03-04T08:28:59.111Z,11.3
2019-03-04T08:30:01.820Z,11.4
2019-03-04T08:31:04.228Z,11.4
2019-03-04T08:32:06.379Z,11.4
2019-03-04T08:33:09.250Z,11.4
2019-03-04T08:34:11.374Z,11.4
2019-03-04T08:35:13.757Z,11.4
2019-03-04T08:36:15.885Z,11.4
2019-03-04T08:37:18.000Z,11.4
2019-03-04T08:38:20.142Z,11.4
2019-03-04T08:39:24.130Z,11.4
2019-03-04T08:40:26.305Z,11.4
2019-03-04T08:41:28.438Z,11.4
2019-03-04T08:42:30.581Z,11.5
2019-03-04T08:43:32.707Z,11.5
2019-03-04T08:44:34.880Z,11.5
2019-03-04T08:45:37.011Z,11.4
2019-03-04T08:46:39.126Z,11.5
2019-03-04T08:47:41.838Z,11.4
2019-03-04T08:48:43.990Z,11.4
2019-03-04T08:49:46.128Z,11.4
2019-03-04T08:50:48.243Z,11.4
2019-03-04T08:51:50.768Z,11.4
2019-03-04T08:52:53.170Z,11.4
2019-03-04T08:53:55.322Z,11.4
2019-03-04T08:54:57.943Z,11.4
2019-03-04T08:56:00.055Z,11.4
2019-03-04T08:57:05.376Z,11.4
2019-03-04T08:58:07.525Z,11.4
2019-03-04T08:59:09.950Z,11.4
2019-03-04T09:00:12.062Z,11.4
2019-03-04T09:01:14.262Z,11.4
2019-03-04T09:02:16.403Z,11.5
2019-03-04T09:03:18.808Z,11.5
2019-03-04T09:04:20.967Z,11.5
2019-03-04T09:05:23.109Z,11.5
2019-03-04T09:06:25.239Z,11.6
2019-03-04T09:07:27.366Z,11.6
2019-03-04T09:08:29.912Z,11.7
2019-03-04T09:09:32.043Z,11.7
2019-03-04T09:10:34.179Z,11.8
2019-03-04T09:11:36.314Z,11.8
2019-03-04T09:12:38.708Z,11.8
2019-03-04T09:13:40.860Z,11.9
2019-03-04T09:14:42.980Z,11.9
2019-03-04T09:15:45.408Z,12
2019-03-04T09:16:47.530Z,12.1
2019-03-04T09:17:50.043Z,12.2
2019-03-04T09:18:52.175Z,12.2
2019-03-04T09:19:54.285Z,12.3
2019-03-04T09:20:56.698Z,12.3
2019-03-04T09:21:59.117Z,12.4
2019-03-04T09:23:01.246Z,12.4
2019-03-04T09:24:04.047Z,12.4
2019-03-04T09:25:06.201Z,12.4
2019-03-04T09:26:08.324Z,12.5
2019-03-04T09:27:10.518Z,12.5
2019-03-04T09:28:12.996Z,12.5
2019-03-04T09:29:15.115Z,12.6
2019-03-04T09:30:17.240Z,12.6
2019-03-04T09:31:19.376Z,12.6
2019-03-04T09:32:21.523Z,12.6
2019-03-04T09:33:23.638Z,12.6
2019-03-04T09:34:25.778Z,12.6
2019-03-04T09:35:27.909Z,12.6
2019-03-04T09:36:30.429Z,12.6
2019-03-04T09:37:32.869Z,12.6
2019-03-04T09:38:34.990Z,12.6
2019-03-04T09:39:37.121Z,12.6
2019-03-04T09:40:39.280Z,12.6
2019-03-04T09:41:41.420Z,12.5
2019-03-04T09:42:43.535Z,12.4
2019-03-04T09:43:46.014Z,12.3
2019-03-04T09:44:48.146Z,12.1
2019-03-04T09:45:50.255Z,12
2019-03-04T09:46:52.389Z,11.9
2019-03-04T09:47:54.515Z,11.2
2019-03-04T09:48:57.019Z,10.5
2019-03-04T09:49:59.425Z,9.8
2019-03-04T09:51:01.573Z,9.3
2019-03-04T09:52:03.707Z,9.2
2019-03-04T09:53:05.828Z,9.1
2019-03-04T09:54:07.947Z,8.9
2019-03-04T09:55:10.079Z,8.8
2019-03-04T09:56:12.200Z,8.6
2019-03-04T09:57:14.314Z,8.5
2019-03-04T09:58:16.446Z,8.5
2019-03-04T09:59:18.559Z,8.4
2019-03-04T10:00:20.675Z,8.4
2019-03-04T10:01:22.809Z,8.5
2019-03-04T10:02:24.923Z,8.4
2019-03-04T10:03:27.056Z,8.4
2019-03-04T10:04:29.749Z,8.4
2019-03-04T10:05:31.899Z,8.3
2019-03-04T10:06:34.028Z,8.3
2019-03-04T10:07:36.159Z,8.3
2019-03-04T10:08:38.284Z,8.4
2019-03-04T10:09:40.403Z,8.4
2019-03-04T10:10:42.534Z,8.4
2019-03-04T10:11:44.651Z,8.5
2019-03-04T10:12:46.775Z,8.5
2019-03-04T10:13:49.187Z,8.5
2019-03-04T10:14:51.319Z,8.6
2019-03-04T10:15:53.435Z,8.6
2019-03-04T10:16:55.559Z,8.6
2019-03-04T10:17:57.693Z,8.6
2019-03-04T10:18:59.794Z,8.7
2019-03-04T10:20:01.927Z,8.7
2019-03-04T10:21:04.055Z,8.8
2019-03-04T10:22:06.170Z,8.8
2019-03-04T10:23:08.290Z,8.8
2019-03-04T10:24:10.423Z,8.7
2019-03-04T10:25:12.541Z,8.8
2019-03-04T10:26:24.191Z,8.7
2019-03-04T10:27:26.598Z,8.7
2019-03-04T10:28:28.719Z,8.8
2019-03-04T10:29:30.844Z,8.7
2019-03-04T10:30:32.974Z,8.8
2019-03-04T10:31:35.423Z,8.7
2019-03-04T10:32:37.550Z,8.7
2019-03-04T10:33:39.676Z,8.7
2019-03-04T10:34:41.813Z,8.7
2019-03-04T10:35:44.208Z,8.7
2019-03-04T10:36:46.343Z,8.6
2019-03-04T10:37:49.035Z,8.6
2019-03-04T10:38:51.170Z,8.6
2019-03-04T10:39:53.270Z,8.6
2019-03-04T10:40:59.024Z,8.5
2019-03-04T10:42:01.425Z,8.5
2019-03-04T10:43:03.540Z,8.5
2019-03-04T10:44:05.682Z,8.5
2019-03-04T10:45:07.792Z,8.5
2019-03-04T10:46:09.924Z,8.5
2019-03-04T10:47:12.047Z,8.5
2019-03-04T10:48:14.466Z,8.6
2019-03-04T10:49:16.581Z,8.6
2019-03-04T10:50:18.705Z,8.6
2019-03-04T10:51:20.833Z,8.6
2019-03-04T10:52:22.957Z,8.6
2019-03-04T10:53:25.088Z,8.6
2019-03-04T10:54:27.217Z,8.6
2019-03-04T10:55:29.339Z,8.6
2019-03-04T10:56:31.548Z,8.7
2019-03-04T10:57:33.692Z,8.7
2019-03-04T10:58:35.815Z,8.7
2019-03-04T10:59:37.959Z,8.7
2019-03-04T11:00:40.080Z,8.8
2019-03-04T11:01:42.760Z,8.8
2019-03-04T11:02:44.887Z,8.8
2019-03-04T11:03:47.021Z,8.8
2019-03-04T11:04:49.128Z,8.7
2019-03-04T11:05:51.259Z,8.8
2019-03-04T11:06:55.788Z,8.8
2019-03-04T11:07:57.903Z,8.8
2019-03-04T11:09:00.104Z,8.8
2019-03-04T11:10:02.613Z,8.8
2019-03-04T11:11:04.730Z,8.8
2019-03-04T11:12:06.837Z,8.7
2019-03-04T11:13:08.985Z,8.8
2019-03-04T11:14:11.099Z,8.8
2019-03-04T11:15:13.220Z,8.8
2019-03-04T11:16:15.360Z,8.8
2019-03-04T11:17:17.464Z,8.8
2019-03-04T11:18:19.594Z,8.9
2019-03-04T11:19:21.718Z,9
2019-03-04T11:20:23.857Z,9.3
2019-03-04T11:21:26.014Z,9.7
2019-03-04T11:22:28.150Z,9.9
2019-03-04T11:23:30.272Z,10.2
2019-03-04T11:24:32.784Z,10.4
2019-03-04T11:25:34.917Z,10.5
2019-03-04T11:26:37.022Z,10.6
2019-03-04T11:27:39.142Z,10.5
2019-03-04T11:28:41.274Z,10.4
2019-03-04T11:29:43.392Z,10.5
2019-03-04T11:30:45.497Z,10.9
2019-03-04T11:31:47.632Z,11
2019-03-04T11:32:49.765Z,11
2019-03-04T11:33:51.897Z,10.9
2019-03-04T11:34:54.036Z,10.7
2019-03-04T11:35:56.162Z,11
2019-03-04T11:36:58.273Z,11
2019-03-04T11:38:00.429Z,10.9
2019-03-04T11:39:02.545Z,10.9
2019-03-04T11:40:04.673Z,10.8
2019-03-04T11:41:06.820Z,10.6
2019-03-04T11:42:08.941Z,10.7
2019-03-04T11:43:11.357Z,10.6
2019-03-04T11:44:13.503Z,10.5
2019-03-04T11:45:15.647Z,10.4
2019-03-04T11:46:18.074Z,10.4
2019-03-04T11:47:20.188Z,10.4
2019-03-04T11:48:22.317Z,10.2
2019-03-04T11:49:24.738Z,10.1
2019-03-04T11:50:26.861Z,10.1
2019-03-04T11:51:29.002Z,10.1
2019-03-04T11:52:31.128Z,10.1
2019-03-04T11:53:33.256Z,10
2019-03-04T11:54:35.361Z,10
2019-03-04T11:55:37.492Z,10
2019-03-04T11:56:39.899Z,10
2019-03-04T11:57:42.290Z,10
2019-03-04T11:58:44.434Z,9.9
2019-03-04T11:59:46.537Z,9.9
2019-03-04T12:00:48.672Z,9.9
2019-03-04T12:01:50.807Z,9.9
2019-03-04T12:02:52.923Z,9.9
2019-03-04T12:03:55.033Z,9.9
2019-03-04T12:04:57.167Z,9.9
2019-03-04T12:05:59.283Z,9.9
2019-03-04T12:07:01.403Z,9.9
2019-03-04T12:08:03.545Z,9.9
2019-03-04T12:09:05.669Z,9.9
2019-03-04T12:10:07.796Z,10
2019-03-04T12:11:09.938Z,10.1
2019-03-04T12:12:12.051Z,10.2
2019-03-04T12:13:14.195Z,10.4
2019-03-04T12:14:16.336Z,10.6
2019-03-04T12:15:18.448Z,10.8
2019-03-04T12:16:20.589Z,10.6
2019-03-04T12:17:22.714Z,10.8
2019-03-04T12:18:24.857Z,11.2
2019-03-04T12:19:29.368Z,11.1
2019-03-04T12:20:31.495Z,11.4
2019-03-04T12:21:34.002Z,11.4
2019-03-04T12:22:36.423Z,11.5
2019-03-04T12:23:38.558Z,11.3
2019-03-04T12:24:41.008Z,11.4
2019-03-04T12:25:43.429Z,11.6
2019-03-04T12:26:45.554Z,11.6
2019-03-04T12:27:47.956Z,11.6
2019-03-04T12:28:50.407Z,11.7
2019-03-04T12:29:52.864Z,11.6
2019-03-04T12:30:54.990Z,11.6
2019-03-04T12:31:57.140Z,11.7
2019-03-04T12:32:59.259Z,12.1
2019-03-04T12:34:01.680Z,12.1
2019-03-04T12:35:03.830Z,11.8
2019-03-04T12:36:05.967Z,11.9
2019-03-04T12:37:08.088Z,12
2019-03-04T12:38:10.213Z,11.9
2019-03-04T12:39:12.331Z,11.7
2019-03-04T12:40:14.453Z,11.7
2019-03-04T12:41:16.596Z,11.6
2019-03-04T12:42:18.721Z,11.8
2019-03-04T12:43:21.123Z,11.7
2019-03-04T12:44:23.268Z,11.6
2019-03-04T12:45:35.735Z,11.4
2019-03-04T12:46:37.851Z,11.4
2019-03-04T12:47:40.379Z,11.3
2019-03-04T12:48:42.498Z,11.1
2019-03-04T12:49:44.624Z,10.9
2019-03-04T12:50:46.751Z,10.8
2019-03-04T12:51:49.454Z,10.6
2019-03-04T12:52:51.581Z,10.4
2019-03-04T12:53:53.768Z,10
2019-03-04T12:54:55.899Z,9.9
2019-03-04T12:55:58.009Z,9.8
2019-03-04T12:57:00.151Z,9.6
2019-03-04T12:58:02.268Z,9.6
2019-03-04T12:59:04.959Z,9.4
2019-03-04T13:00:07.079Z,9.3
2019-03-04T13:01:09.223Z,9.3
2019-03-04T13:02:11.631Z,9.1
2019-03-04T13:03:13.757Z,9.1
2019-03-04T13:04:16.147Z,9
2019-03-04T13:05:18.287Z,8.6
2019-03-04T13:06:20.394Z,8.4
2019-03-04T13:07:22.517Z,8.1
2019-03-04T13:08:25.057Z,8
2019-03-04T13:09:27.184Z,7.8
2019-03-04T13:10:31.734Z,7.8
2019-03-04T13:11:33.974Z,7.7
2019-03-04T13:12:36.095Z,7.6
2019-03-04T13:13:38.219Z,7.4
2019-03-04T13:14:40.633Z,7.4
2019-03-04T13:15:42.751Z,7.3
2019-03-04T13:16:44.887Z,7.1
2019-03-04T13:17:47.023Z,7.1
2019-03-04T13:18:49.136Z,7
2019-03-04T13:19:51.279Z,6.9
2019-03-04T13:20:53.406Z,6.9
2019-03-04T13:21:55.512Z,6.9
2019-03-04T13:22:57.643Z,6.8
2019-03-04T13:23:59.771Z,6.8
2019-03-04T13:25:01.912Z,6.8
2019-03-04T13:26:04.292Z,6.8
2019-03-04T13:27:06.727Z,6.8
2019-03-04T13:28:10.144Z,6.8
2019-03-04T13:29:12.256Z,6.8
2019-03-04T13:30:14.397Z,6.8
2019-03-04T13:31:16.504Z,6.8
2019-03-04T13:32:18.625Z,6.8
2019-03-04T13:33:21.022Z,6.9
2019-03-04T13:34:23.211Z,6.9
2019-03-04T13:35:26.158Z,6.9
2019-03-04T13:36:28.671Z,7
2019-03-04T13:37:30.808Z,7
2019-03-04T13:38:32.929Z,7
2019-03-04T13:39:35.056Z,7
2019-03-04T13:40:37.185Z,7
2019-03-04T13:41:39.354Z,7.1
2019-03-04T13:42:41.472Z,7.2
2019-03-04T13:43:43.905Z,7.2
2019-03-04T13:44:46.360Z,7.2
2019-03-04T13:45:48.538Z,7.3
2019-03-04T13:46:50.982Z,7.3
2019-03-04T13:47:53.121Z,7.4
2019-03-04T13:48:56.886Z,7.4
2019-03-04T13:49:59.084Z,7.4
2019-03-04T13:51:01.208Z,7.4
2019-03-04T13:52:03.359Z,7.4
2019-03-04T13:53:05.497Z,7.4
2019-03-04T13:54:07.609Z,7.5
2019-03-04T13:55:09.739Z,7.5
2019-03-04T13:56:11.855Z,7.4
2019-03-04T13:57:13.976Z,7.4
2019-03-04T13:58:16.094Z,7.5
2019-03-04T13:59:18.241Z,7.4
2019-03-04T14:00:20.347Z,7.4
2019-03-04T14:01:24.752Z,7.4
2019-03-04T14:02:27.194Z,7.4
2019-03-04T14:03:29.298Z,7.4
2019-03-04T14:04:31.474Z,7.4
2019-03-04T14:05:33.608Z,7.4
2019-03-04T14:06:35.744Z,7.4
2019-03-04T14:07:38.250Z,7.4
2019-03-04T14:08:40.379Z,7.3
2019-03-04T14:09:42.503Z,7.4